Time;durP1;ratioP1;P1;durP2;ratioP2;P2;SDS_P1;SDS_P2;PMS_P1;PMS_P2;Temp;Humidity;BMP_temperature;BMP_pressure;BME280_temperature;BME280_humidity;BME280_pressure;Samples;Min_cycle;Max_cycle;Signal;HPM_P1;HPM_P2
2022/09/18 00:02:22;;;;;;;1.20;0.50;;;15.90;96.70;;;;;;5090714;27;20505;-76
2022/09/18 00:04:50;;;;;;;3.83;0.50;;;15.80;96.70;;;;;;5106949;27;20064;-74
2022/09/18 00:07:19;;;;;;;1.77;0.40;;;15.70;96.70;;;;;;5101605;27;20043;-75
2022/09/18 00:09:47;;;;;;;1.52;0.38;;;15.70;96.70;;;;;;5080940;28;20069;-75
2022/09/18 00:12:15;;;;;;;2.22;0.60;;;15.70;96.70;;;;;;5096872;28;20139;-75
2022/09/18 00:14:43;;;;;;;3.00;0.50;;;15.80;96.70;;;;;;5098542;28;20051;-74
2022/09/18 00:17:11;;;;;;;1.52;0.50;;;15.80;96.70;;;;;;5097436;28;20633;-75
2022/09/18 00:19:39;;;;;;;1.05;0.43;;;15.80;96.70;;;;;;5096789;28;20110;-75
2022/09/18 00:22:07;;;;;;;1.88;0.65;;;15.70;96.70;;;;;;5100019;28;20040;-74
2022/09/18 00:24:36;;;;;;;5.78;0.98;;;15.60;96.70;;;;;;5096086;27;20052;-75
2022/09/18 00:27:04;;;;;;;1.88;0.60;;;15.60;96.70;;;;;;5087544;28;20059;-75
2022/09/18 00:29:32;;;;;;;2.10;0.73;;;15.50;96.70;;;;;;5098639;28;20040;-75
2022/09/18 00:32:01;;;;;;;2.60;0.80;;;15.50;96.70;;;;;;5101919;28;20117;-76
2022/09/18 00:34:29;;;;;;;1.38;0.73;;;15.50;96.70;;;;;;5079678;28;20043;-75
2022/09/18 00:36:57;;;;;;;2.65;0.70;;;15.40;96.70;;;;;;5097019;28;20043;-75
2022/09/18 00:39:25;;;;;;;1.38;0.70;;;15.50;96.70;;;;;;5092571;28;20058;-75
2022/09/18 00:41:54;;;;;;;3.00;0.70;;;15.40;96.70;;;;;;5094520;28;20040;-74
2022/09/18 00:44:34;;;;;;;2.38;0.80;;;15.20;96.70;;;;;;5098836;28;20044;-75
2022/09/18 00:47:18;;;;;;;2.20;0.80;;;15.30;96.70;;;;;;5102452;27;20399;-75
2022/09/18 00:49:50;;;;;;;2.35;1.08;;;15.20;96.70;;;;;;5090700;28;20052;-75
2022/09/18 00:52:23;;;;;;;2.33;0.80;;;15.30;96.70;;;;;;5098917;27;20048;-74
2022/09/18 00:54:55;;;;;;;2.03;0.90;;;15.30;96.70;;;;;;5095679;27;20054;-76
2022/09/18 00:57:31;;;;;;;2.25;0.95;;;15.30;96.70;;;;;;5099965;27;20032;-75
2022/09/18 01:00:04;;;;;;;2.08;0.80;;;15.30;96.70;;;;;;5083985;28;20051;-75
2022/09/18 01:02:32;;;;;;;1.13;0.60;;;15.30;96.70;;;;;;5096531;28;20048;-75
2022/09/18 01:05:00;;;;;;;1.35;0.60;;;15.30;96.70;;;;;;5096834;28;20043;-75
2022/09/18 01:07:39;;;;;;;1.75;0.73;;;15.20;96.70;;;;;;5101009;28;20075;-75
2022/09/18 01:10:19;;;;;;;3.90;0.85;;;15.30;96.70;;;;;;5100177;28;20154;-75
2022/09/18 01:12:54;;;;;;;3.90;0.70;;;15.30;96.70;;;;;;5090853;27;20063;-74
2022/09/18 01:15:31;;;;;;;1.45;0.50;;;15.20;96.70;;;;;;5098631;27;20492;-75
2022/09/18 01:18:08;;;;;;;2.15;0.60;;;15.20;96.70;;;;;;5083432;28;20063;-75
2022/09/18 01:21:14;;;;;;;3.20;0.70;;;15.10;96.70;;;;;;5076765;28;20526;-75
2022/09/18 01:24:11;;;;;;;1.02;0.47;;;15.00;96.70;;;;;;5075587;28;20143;-75
2022/09/18 01:27:01;;;;;;;3.80;0.65;;;14.90;96.70;;;;;;5079331;27;20047;-75
2022/09/18 01:29:42;;;;;;;0.50;0.30;;;14.90;96.70;;;;;;5099168;27;20577;-75
2022/09/18 01:32:18;;;;;;;3.40;0.35;;;14.90;96.70;;;;;;5097233;27;20056;-74
2022/09/18 01:34:55;;;;;;;0.90;0.35;;;14.90;96.70;;;;;;5101555;27;20496;-75
2022/09/18 01:37:30;;;;;;;2.55;0.40;;;14.90;96.70;;;;;;5077916;28;20055;-75
2022/09/18 01:40:08;;;;;;;2.03;0.50;;;15.10;96.70;;;;;;5081369;27;20059;-75
2022/09/18 01:42:38;;;;;;;1.30;0.30;;;15.00;96.70;;;;;;5099884;27;20065;-75
2022/09/18 01:45:10;;;;;;;1.77;0.40;;;15.00;96.70;;;;;;5097074;27;20115;-75
2022/09/18 01:47:43;;;;;;;1.98;0.40;;;15.00;96.70;;;;;;5089649;28;20044;-75
2022/09/18 01:50:13;;;;;;;0.95;0.40;;;14.70;96.70;;;;;;5098478;27;20079;-75
2022/09/18 01:52:47;;;;;;;0.85;0.30;;;14.60;96.70;;;;;;5075096;28;20075;-75
2022/09/18 01:55:21;;;;;;;1.67;0.40;;;14.60;96.70;;;;;;5098081;27;20044;-75
2022/09/18 01:57:54;;;;;;;1.55;0.28;;;14.60;96.70;;;;;;5080967;28;20047;-75
2022/09/18 02:00:24;;;;;;;2.47;0.40;;;14.60;96.70;;;;;;5044729;28;20049;-75
2022/09/18 02:02:55;;;;;;;1.98;0.50;;;14.50;96.70;;;;;;5059006;28;20103;-76
2022/09/18 02:05:39;;;;;;;1.08;0.35;;;14.60;96.70;;;;;;5050983;28;20045;-75
2022/09/18 02:08:15;;;;;;;2.95;0.60;;;14.60;96.70;;;;;;5059310;28;20044;-75
2022/09/18 02:10:51;;;;;;;1.60;0.40;;;14.60;96.70;;;;;;5051128;28;20044;-75
2022/09/18 02:13:23;;;;;;;1.30;0.40;;;14.60;96.70;;;;;;5056624;28;20597;-75
2022/09/18 02:16:00;;;;;;;1.88;0.40;;;14.50;96.70;;;;;;5050290;28;20036;-75
2022/09/18 02:18:33;;;;;;;1.05;0.50;;;14.40;96.70;;;;;;5040074;28;20530;-75
2022/09/18 02:21:10;;;;;;;1.65;0.68;;;14.50;96.70;;;;;;5053331;28;20052;-75
2022/09/18 02:23:40;;;;;;;1.40;0.50;;;14.60;96.70;;;;;;5055356;28;20208;-75
2022/09/18 02:26:11;;;;;;;1.08;0.50;;;14.70;96.70;;;;;;5056869;28;20044;-75
2022/09/18 02:28:40;;;;;;;3.00;0.32;;;14.70;96.70;;;;;;5055295;28;20080;-76
2022/09/18 02:31:11;;;;;;;2.85;0.50;;;14.80;96.70;;;;;;5049189;28;20125;-76
2022/09/18 02:33:39;;;;;;;0.80;0.30;;;14.80;96.70;;;;;;5034380;28;20048;-75
2022/09/18 02:36:41;;;;;;;2.70;0.60;;;15.00;96.70;;;;;;5054793;28;20044;-76
2022/09/18 02:39:26;;;;;;;0.85;0.43;;;15.00;96.70;;;;;;5013125;28;20052;-76
2022/09/18 02:42:08;;;;;;;3.92;0.73;;;14.90;96.70;;;;;;5054407;28;20442;-76
2022/09/18 02:44:45;;;;;;;1.85;0.38;;;14.90;96.70;;;;;;5052603;28;20044;-75
2022/09/18 02:47:25;;;;;;;1.48;0.50;;;14.80;96.70;;;;;;5058588;28;20041;-75
2022/09/18 02:50:02;;;;;;;1.00;0.40;;;14.80;96.70;;;;;;5057632;28;20044;-75
2022/09/18 02:52:40;;;;;;;1.02;0.60;;;14.70;96.70;;;;;;5056106;28;20146;-75
2022/09/18 02:55:13;;;;;;;2.25;0.52;;;14.80;96.70;;;;;;5049656;28;20071;-75
2022/09/18 02:57:47;;;;;;;2.90;0.90;;;14.70;96.70;;;;;;5054437;28;20160;-75
2022/09/18 03:00:17;;;;;;;1.10;0.38;;;14.60;96.70;;;;;;5096394;28;20052;-75
2022/09/18 03:02:51;;;;;;;0.77;0.45;;;14.70;96.70;;;;;;5092799;28;20405;-75
2022/09/18 03:05:30;;;;;;;1.38;0.40;;;14.70;96.70;;;;;;5083425;28;20072;-75
2022/09/18 03:08:01;;;;;;;0.90;0.40;;;14.60;96.70;;;;;;5093459;28;20592;-75
2022/09/18 03:10:31;;;;;;;1.23;0.35;;;14.60;96.70;;;;;;5097219;28;20477;-74
2022/09/18 03:12:59;;;;;;;2.65;0.70;;;14.60;96.70;;;;;;5091505;28;20055;-75
2022/09/18 03:15:28;;;;;;;1.67;0.60;;;14.50;96.70;;;;;;5103715;27;20054;-76
2022/09/18 03:17:58;;;;;;;3.42;0.50;;;14.50;96.70;;;;;;5093680;28;20088;-76
2022/09/18 03:20:26;;;;;;;1.23;0.40;;;14.50;96.70;;;;;;5098832;28;20039;-75
2022/09/18 03:23:02;;;;;;;1.10;0.40;;;14.60;96.70;;;;;;5090308;28;20044;-75
2022/09/18 03:25:31;;;;;;;1.30;0.50;;;14.50;96.70;;;;;;5091304;28;20058;-76
2022/09/18 03:27:58;;;;;;;3.47;0.70;;;14.40;96.70;;;;;;5110477;27;20035;-75
2022/09/18 03:30:35;;;;;;;1.80;0.50;;;14.40;96.70;;;;;;5093674;28;20146;-75
2022/09/18 03:33:04;;;;;;;1.30;0.30;;;14.20;96.70;;;;;;5089712;28;20297;-75
2022/09/18 03:35:32;;;;;;;1.65;0.50;;;14.20;96.70;;;;;;5093452;28;20072;-75
2022/09/18 03:38:00;;;;;;;1.63;0.52;;;14.20;96.70;;;;;;5100301;28;20398;-75
2022/09/18 03:40:30;;;;;;;2.50;0.52;;;14.30;96.70;;;;;;5093589;28;20040;-75
2022/09/18 03:43:02;;;;;;;1.38;0.60;;;14.20;96.70;;;;;;5097166;28;20044;-75
2022/09/18 03:45:30;;;;;;;2.28;0.52;;;14.20;96.70;;;;;;5108022;27;20133;-75
2022/09/18 03:47:59;;;;;;;1.92;0.47;;;14.20;96.70;;;;;;5101886;27;20054;-75
2022/09/18 03:50:29;;;;;;;1.38;0.60;;;14.20;96.70;;;;;;5085983;27;20048;-75
2022/09/18 03:53:01;;;;;;;1.20;0.65;;;14.30;96.70;;;;;;5099176;27;20089;-75
2022/09/18 03:55:52;;;;;;;1.77;0.77;;;14.20;96.70;;;;;;5074863;28;20055;-75
2022/09/18 03:58:38;;;;;;;1.73;0.57;;;14.20;96.70;;;;;;5100050;27;20067;-76
2022/09/18 04:01:28;;;;;;;1.30;0.57;;;14.00;96.70;;;;;;5102368;27;20061;-75
2022/09/18 04:04:25;;;;;;;1.73;0.60;;;13.90;96.70;;;;;;5035849;28;20060;-75
2022/09/18 04:07:00;;;;;;;1.60;0.70;;;13.80;96.70;;;;;;5034863;28;20160;-76
2022/09/18 04:09:53;;;;;;;2.72;0.93;;;13.90;96.70;;;;;;5011290;28;20049;-75
2022/09/18 04:12:21;;;;;;;1.58;0.80;;;13.90;96.70;;;;;;5018498;28;20515;-75
2022/09/18 04:15:03;;;;;;;2.13;0.73;;;13.90;96.70;;;;;;5004458;28;20049;-75
2022/09/18 04:17:31;;;;;;;1.08;0.75;;;14.00;96.70;;;;;;5029873;28;20087;-74
2022/09/18 04:19:59;;;;;;;3.03;0.85;;;13.90;96.70;;;;;;5017624;28;20052;-74
2022/09/18 04:22:28;;;;;;;2.63;0.65;;;14.00;96.70;;;;;;5018752;28;20068;-75
2022/09/18 04:24:56;;;;;;;1.67;0.73;;;14.00;96.70;;;;;;5025381;28;20037;-74
2022/09/18 04:27:23;;;;;;;2.67;0.77;;;14.00;96.70;;;;;;5018035;28;20049;-75
2022/09/18 04:29:51;;;;;;;3.03;1.00;;;14.00;96.70;;;;;;5018114;28;20065;-75
2022/09/18 04:32:21;;;;;;;1.45;0.60;;;13.90;96.70;;;;;;5019169;28;20076;-75
2022/09/18 04:34:49;;;;;;;2.35;0.85;;;13.90;96.70;;;;;;5025731;28;20071;-74
2022/09/18 04:37:18;;;;;;;3.17;0.90;;;14.00;96.70;;;;;;5016848;28;20044;-75
2022/09/18 04:39:48;;;;;;;1.52;0.70;;;13.90;96.70;;;;;;5024282;28;20068;-75
2022/09/18 04:42:17;;;;;;;3.80;1.00;;;13.90;96.70;;;;;;5100811;27;20648;-75
2022/09/18 04:44:46;;;;;;;3.25;1.05;;;13.90;96.70;;;;;;5096429;28;20043;-76
2022/09/18 04:47:14;;;;;;;2.33;0.40;;;13.90;96.70;;;;;;5091171;27;20143;-75
2022/09/18 04:49:42;;;;;;;1.05;0.60;;;13.90;96.70;;;;;;5086472;28;20040;-75
2022/09/18 04:52:09;;;;;;;2.97;0.60;;;13.80;96.70;;;;;;5103995;27;20139;-75
2022/09/18 04:54:37;;;;;;;1.00;0.55;;;13.80;96.70;;;;;;5098299;28;20036;-75
2022/09/18 04:57:07;;;;;;;1.23;0.50;;;13.80;96.70;;;;;;5094134;28;20491;-75
2022/09/18 04:59:35;;;;;;;2.70;0.40;;;13.80;96.70;;;;;;5093123;28;20078;-76
2022/09/18 05:02:04;;;;;;;2.08;0.43;;;13.80;96.70;;;;;;5094031;28;20056;-76
2022/09/18 05:04:32;;;;;;;1.75;0.73;;;13.80;96.70;;;;;;5105370;27;20039;-75
2022/09/18 05:07:20;;;;;;;0.82;0.50;;;13.80;96.70;;;;;;5102573;27;20048;-75
2022/09/18 05:09:48;;;;;;;0.95;0.60;;;13.80;96.70;;;;;;5088107;27;20056;-75
2022/09/18 05:12:17;;;;;;;4.10;1.13;;;13.80;96.70;;;;;;5103344;27;20043;-76
2022/09/18 05:14:45;;;;;;;8.40;3.95;;;13.60;96.70;;;;;;5102611;27;20039;-76
2022/09/18 05:17:17;;;;;;;9.68;5.03;;;13.60;96.70;;;;;;5081091;28;20851;-75
2022/09/18 05:20:04;;;;;;;18.63;11.05;;;13.50;96.70;;;;;;5097831;28;20040;-75
2022/09/18 05:22:37;;;;;;;48.40;30.75;;;13.60;96.70;;;;;;5096170;28;20079;-76
2022/09/18 05:25:09;;;;;;;35.85;24.08;;;13.70;96.70;;;;;;5097371;28;20316;-74
2022/09/18 05:27:39;;;;;;;30.58;21.13;;;13.70;96.70;;;;;;5097678;28;20448;-74
2022/09/18 05:30:09;;;;;;;22.35;14.27;;;13.60;96.70;;;;;;5109217;27;20036;-75
2022/09/18 05:32:57;;;;;;;20.55;13.20;;;13.60;96.70;;;;;;5084209;28;20055;-75
2022/09/18 05:35:29;;;;;;;17.45;10.70;;;13.70;96.70;;;;;;5095281;28;20432;-75
2022/09/18 05:37:59;;;;;;;13.80;8.43;;;14.00;96.70;;;;;;5098425;27;20097;-75
2022/09/18 05:40:30;;;;;;;11.13;6.70;;;14.10;96.70;;;;;;5095304;27;20075;-75
2022/09/18 05:43:04;;;;;;;4.03;2.95;;;13.90;96.70;;;;;;5103988;27;20218;-74
2022/09/18 05:45:33;;;;;;;5.13;2.72;;;13.90;96.70;;;;;;5100925;27;20048;-75
2022/09/18 05:48:07;;;;;;;4.22;1.25;;;13.90;96.70;;;;;;5095106;27;20097;-74
2022/09/18 05:50:36;;;;;;;4.15;1.10;;;13.90;96.70;;;;;;5098409;28;20052;-75
2022/09/18 05:53:07;;;;;;;1.27;0.73;;;13.90;96.70;;;;;;5100205;27;20039;-76
2022/09/18 05:55:59;;;;;;;2.60;0.95;;;13.90;96.70;;;;;;5087426;27;20058;-76
2022/09/18 05:58:28;;;;;;;1.95;1.15;;;14.10;96.70;;;;;;5077768;28;20056;-75
2022/09/18 06:01:00;;;;;;;1.42;0.90;;;14.00;96.70;;;;;;5091036;28;20097;-76
2022/09/18 06:03:43;;;;;;;2.78;1.00;;;14.00;96.70;;;;;;5101454;27;20497;-76
2022/09/18 06:06:12;;;;;;;2.35;1.20;;;14.00;96.70;;;;;;5089634;28;20043;-75
2022/09/18 06:08:40;;;;;;;4.80;1.40;;;14.10;96.70;;;;;;5094260;27;20047;-76
2022/09/18 06:11:08;;;;;;;2.60;1.40;;;14.10;96.70;;;;;;5096316;28;20044;-76
2022/09/18 06:13:37;;;;;;;2.53;1.33;;;14.20;96.70;;;;;;5102188;27;20096;-76
2022/09/18 06:16:05;;;;;;;2.53;1.60;;;14.40;96.70;;;;;;5100418;27;20213;-74
2022/09/18 06:18:46;;;;;;;3.08;1.30;;;14.50;96.70;;;;;;5093762;27;20040;-77
2022/09/18 06:21:14;;;;;;;2.17;1.33;;;14.60;96.70;;;;;;5099009;27;20039;-76
2022/09/18 06:23:43;;;;;;;3.75;1.50;;;14.70;96.70;;;;;;5079079;28;20039;-75
2022/09/18 06:26:23;;;;;;;4.53;1.38;;;14.70;96.70;;;;;;5095010;28;20043;-75
2022/09/18 06:28:52;;;;;;;2.97;1.70;;;14.70;96.70;;;;;;5082127;28;20112;-76
2022/09/18 06:31:20;;;;;;;4.57;2.25;;;14.70;96.70;;;;;;5091526;28;20044;-76
2022/09/18 06:34:09;;;;;;;4.90;1.85;;;14.70;96.70;;;;;;5083028;27;20146;-75
2022/09/18 06:36:38;;;;;;;3.85;2.30;;;14.70;96.70;;;;;;5078030;28;20066;-76
2022/09/18 06:39:22;;;;;;;4.55;2.50;;;14.80;96.70;;;;;;5098388;28;20052;-76
2022/09/18 06:41:54;;;;;;;4.70;2.75;;;14.80;96.70;;;;;;5093557;28;20055;-75
2022/09/18 06:44:50;;;;;;;8.93;3.97;;;14.80;96.70;;;;;;5096633;28;20059;-76
2022/09/18 06:47:19;;;;;;;8.45;3.85;;;14.90;96.70;;;;;;5097638;28;20054;-75
2022/09/18 06:49:48;;;;;;;5.70;3.17;;;15.00;96.70;;;;;;5090654;28;21239;-75
2022/09/18 06:52:17;;;;;;;7.82;3.08;;;15.20;96.70;;;;;;5099817;28;20032;-76
2022/09/18 06:54:46;;;;;;;4.45;2.63;;;15.30;96.70;;;;;;5097205;28;20048;-75
2022/09/18 06:57:29;;;;;;;7.32;4.03;;;15.10;96.70;;;;;;5091838;28;20058;-76
2022/09/18 06:59:59;;;;;;;7.63;4.32;;;15.20;96.70;;;;;;5092812;28;20059;-76
2022/09/18 07:02:31;;;;;;;6.97;3.10;;;15.10;96.70;;;;;;5091244;28;20052;-76
2022/09/18 07:05:18;;;;;;;7.28;3.80;;;15.30;96.70;;;;;;5084715;28;20059;-75
2022/09/18 07:07:46;;;;;;;8.57;5.70;;;15.40;96.70;;;;;;5099493;28;20525;-76
2022/09/18 07:10:14;;;;;;;6.85;4.00;;;15.40;96.70;;;;;;5100708;28;20054;-76
2022/09/18 07:12:47;;;;;;;15.77;8.77;;;15.40;96.70;;;;;;5097168;28;20172;-75
2022/09/18 07:15:25;;;;;;;18.13;8.10;;;15.50;96.70;;;;;;5088265;28;20047;-76
2022/09/18 07:17:55;;;;;;;10.77;5.70;;;15.60;96.70;;;;;;5095776;28;20098;-75
2022/09/18 07:20:23;;;;;;;7.28;3.72;;;15.50;96.70;;;;;;5100993;28;20052;-76
2022/09/18 07:22:55;;;;;;;10.73;5.50;;;15.50;96.70;;;;;;5093374;27;20071;-75
2022/09/18 07:25:35;;;;;;;9.45;4.22;;;15.60;96.70;;;;;;5105610;27;20067;-76
2022/09/18 07:28:06;;;;;;;8.07;3.85;;;15.70;96.70;;;;;;5101725;27;20074;-76
2022/09/18 07:30:42;;;;;;;6.45;3.47;;;15.80;96.70;;;;;;5104029;27;20420;-76
2022/09/18 07:33:10;;;;;;;6.90;2.95;;;16.00;96.70;;;;;;5101614;27;20541;-75
2022/09/18 07:35:58;;;;;;;4.40;2.03;;;16.00;96.70;;;;;;5089712;28;20078;-76
2022/09/18 07:38:29;;;;;;;4.57;2.17;;;16.00;96.70;;;;;;5105082;27;20134;-76
2022/09/18 07:41:00;;;;;;;3.95;1.90;;;16.10;96.70;;;;;;5097737;27;20039;-76
2022/09/18 07:43:31;;;;;;;4.03;1.30;;;16.10;96.70;;;;;;5103950;27;20510;-75
2022/09/18 07:46:01;;;;;;;3.67;1.25;;;16.20;96.70;;;;;;5095672;27;20035;-75
2022/09/18 07:48:32;;;;;;;4.85;1.50;;;16.20;96.70;;;;;;5097522;28;20076;-76
2022/09/18 07:51:09;;;;;;;2.40;0.95;;;16.30;96.70;;;;;;5096507;28;20142;-76
2022/09/18 07:53:38;;;;;;;1.85;0.77;;;16.40;96.70;;;;;;5096866;28;20439;-76
2022/09/18 07:56:08;;;;;;;2.13;0.88;;;16.50;96.70;;;;;;5094583;28;20047;-75
2022/09/18 07:58:37;;;;;;;3.40;1.77;;;16.50;96.70;;;;;;5096775;28;20139;-75
2022/09/18 08:01:23;;;;;;;6.18;2.50;;;16.70;96.70;;;;;;5100674;27;20058;-77
2022/09/18 08:03:54;;;;;;;3.65;2.10;;;16.80;96.70;;;;;;5102432;28;20108;-76
2022/09/18 08:06:42;;;;;;;3.50;1.20;;;16.80;96.70;;;;;;5069020;28;20047;-75
2022/09/18 08:09:30;;;;;;;1.88;0.95;;;16.80;96.70;;;;;;5098613;28;20105;-76
2022/09/18 08:12:21;;;;;;;2.80;0.95;;;16.90;96.70;;;;;;5099200;27;20036;-76
2022/09/18 08:15:10;;;;;;;3.25;1.30;;;17.00;96.70;;;;;;5100774;27;20417;-76
2022/09/18 08:17:58;;;;;;;4.53;0.88;;;17.10;96.70;;;;;;5099787;27;20659;-75
2022/09/18 08:21:01;;;;;;;1.50;0.60;;;17.10;96.70;;;;;;5082847;28;20131;-75
2022/09/18 08:23:44;;;;;;;2.42;0.70;;;17.20;96.70;;;;;;5087871;28;20397;-74
2022/09/18 08:26:13;;;;;;;2.40;0.75;;;17.30;96.70;;;;;;5080879;28;20052;-76
2022/09/18 08:28:49;;;;;;;2.67;0.70;;;17.40;96.70;;;;;;5090349;28;20052;-76
2022/09/18 08:31:17;;;;;;;1.48;0.77;;;17.50;96.70;;;;;;5094357;28;20057;-76
2022/09/18 08:33:46;;;;;;;2.75;0.80;;;17.50;96.70;;;;;;5095915;27;20044;-76
2022/09/18 08:36:14;;;;;;;1.70;1.00;;;17.60;96.70;;;;;;5093753;28;20031;-75
2022/09/18 08:38:54;;;;;;;2.50;0.77;;;17.70;96.70;;;;;;5104681;27;20347;-76
2022/09/18 08:41:55;;;;;;;2.47;1.20;;;17.70;96.70;;;;;;5103647;27;20055;-76
2022/09/18 08:44:27;;;;;;;3.70;1.50;;;17.80;96.70;;;;;;5093855;28;20051;-76
2022/09/18 08:47:01;;;;;;;4.80;1.58;;;17.90;96.70;;;;;;5080923;28;20051;-76
2022/09/18 08:49:36;;;;;;;3.00;1.77;;;17.90;96.70;;;;;;5077666;28;20574;-76
2022/09/18 08:52:12;;;;;;;2.38;1.40;;;17.90;96.70;;;;;;5075368;28;20044;-76
2022/09/18 08:54:47;;;;;;;3.38;1.25;;;18.00;96.70;;;;;;5092027;28;20044;-74
2022/09/18 08:57:28;;;;;;;2.15;1.00;;;18.10;96.70;;;;;;5092956;28;20056;-76
2022/09/18 09:00:18;;;;;;;3.33;1.00;;;18.30;96.70;;;;;;5096209;28;20459;-76
2022/09/18 09:03:21;;;;;;;8.68;5.60;;;18.40;96.70;;;;;;5092041;28;20135;-75
2022/09/18 09:05:55;;;;;;;4.10;1.63;;;18.40;96.70;;;;;;5081246;28;20123;-75
2022/09/18 09:09:06;;;;;;;1.90;1.23;;;18.60;96.70;;;;;;5093428;28;20085;-76
2022/09/18 09:11:50;;;;;;;2.08;1.40;;;18.60;96.70;;;;;;5076937;28;20043;-76
2022/09/18 09:14:58;;;;;;;2.70;1.08;;;18.70;96.70;;;;;;5095969;28;20055;-75
2022/09/18 09:17:39;;;;;;;1.92;1.15;;;18.70;96.70;;;;;;5096961;27;20062;-76
2022/09/18 09:20:35;;;;;;;2.38;1.17;;;18.80;96.70;;;;;;5094019;28;20052;-76
2022/09/18 09:23:16;;;;;;;3.25;1.30;;;18.90;96.70;;;;;;5099892;28;20454;-76
2022/09/18 09:25:58;;;;;;;2.53;1.30;;;19.00;96.70;;;;;;5094691;28;20044;-76
2022/09/18 09:28:53;;;;;;;3.70;2.28;;;19.00;96.70;;;;;;5083326;28;20849;-75
2022/09/18 09:32:03;;;;;;;4.15;3.17;;;19.10;96.70;;;;;;5022791;28;20059;-76
2022/09/18 09:34:54;;;;;;;3.45;1.33;;;19.30;96.70;;;;;;5096666;28;20059;-76
2022/09/18 09:37:38;;;;;;;2.45;1.30;;;19.40;96.70;;;;;;5078354;27;20054;-76
2022/09/18 09:40:17;;;;;;;3.85;1.45;;;19.40;96.70;;;;;;5102630;27;20039;-76
2022/09/18 09:42:55;;;;;;;3.13;1.42;;;19.50;96.70;;;;;;5101301;27;20058;-76
2022/09/18 09:45:28;;;;;;;5.63;3.90;;;19.60;96.70;;;;;;5099468;27;20044;-75
2022/09/18 09:48:04;;;;;;;4.05;2.40;;;19.70;96.70;;;;;;5099395;27;20050;-76
2022/09/18 09:50:45;;;;;;;3.10;1.42;;;19.90;96.70;;;;;;5085073;28;20133;-75
2022/09/18 09:53:14;;;;;;;3.03;1.17;;;20.00;96.70;;;;;;5085288;28;20054;-76
2022/09/18 09:55:59;;;;;;;5.82;1.40;;;20.10;96.70;;;;;;5082340;28;20051;-75
2022/09/18 09:58:38;;;;;;;1.92;1.13;;;20.30;96.70;;;;;;5093290;27;20079;-76
2022/09/18 10:01:14;;;;;;;3.08;1.30;;;20.50;96.70;;;;;;5096242;27;20086;-75
2022/09/18 10:03:58;;;;;;;2.03;0.95;;;20.60;96.70;;;;;;5085185;27;20058;-76
2022/09/18 10:06:40;;;;;;;;;;;20.60;96.70;;;;;;5097628;27;20040;-76
2022/09/18 10:09:14;;;;;;;1.92;0.90;;;20.80;96.70;;;;;;5099059;27;20755;-76
2022/09/18 10:11:53;;;;;;;2.13;1.10;;;20.80;96.70;;;;;;5086223;28;20568;-75
2022/09/18 10:14:27;;;;;;;2.03;1.02;;;20.80;96.70;;;;;;5101682;27;20052;-76
2022/09/18 10:16:56;;;;;;;1.58;0.88;;;20.80;96.70;;;;;;5105068;27;20043;-76
2022/09/18 10:19:34;;;;;;;1.42;0.70;;;20.90;96.70;;;;;;5098035;28;20409;-77
2022/09/18 10:22:06;;;;;;;1.80;1.25;;;20.90;96.70;;;;;;5090288;28;20048;-76
2022/09/18 10:24:45;;;;;;;2.80;1.35;;;21.00;96.70;;;;;;5110184;27;20043;-74
2022/09/18 10:27:18;;;;;;;1.17;0.60;;;21.10;96.70;;;;;;5087227;27;20054;-77
2022/09/18 10:29:46;;;;;;;1.23;0.70;;;21.10;96.70;;;;;;5096769;28;20535;-77
2022/09/18 10:32:34;;;;;;;2.60;0.93;;;21.20;96.70;;;;;;5084943;28;20047;-76
2022/09/18 10:35:35;;;;;;;1.83;0.73;;;21.40;96.70;;;;;;5081166;28;20521;-74
2022/09/18 10:38:28;;;;;;;1.35;0.43;;;21.60;96.70;;;;;;5095348;28;20044;-74
2022/09/18 10:41:22;;;;;;;1.80;0.68;;;21.70;96.70;;;;;;5077350;28;20116;-73
2022/09/18 10:44:14;;;;;;;1.98;0.77;;;21.80;96.70;;;;;;5087129;27;20063;-74
2022/09/18 10:46:52;;;;;;;3.42;0.55;;;21.90;96.70;;;;;;5089939;28;20132;-74
2022/09/18 10:49:25;;;;;;;1.02;0.63;;;22.00;96.70;;;;;;5097191;28;20047;-75
2022/09/18 10:52:19;;;;;;;1.70;0.57;;;22.00;96.70;;;;;;5097554;28;20553;-74
2022/09/18 10:55:01;;;;;;;2.05;0.65;;;22.20;96.70;;;;;;5098655;28;20058;-75
2022/09/18 10:57:32;;;;;;;2.30;0.70;;;22.30;96.70;;;;;;5097001;28;20055;-75
2022/09/18 11:00:42;;;;;;;2.25;0.88;;;22.50;96.70;;;;;;5085222;28;20455;-74
2022/09/18 11:03:24;;;;;;;3.10;0.90;;;22.60;96.70;;;;;;5098904;28;20043;-74
2022/09/18 11:05:56;;;;;;;1.90;0.80;;;22.60;96.70;;;;;;5097469;28;20393;-74
2022/09/18 11:08:28;;;;;;;1.75;0.75;;;22.70;96.70;;;;;;5095675;27;20047;-75
2022/09/18 11:11:02;;;;;;;1.40;0.70;;;22.80;96.70;;;;;;5103309;27;20048;-74
2022/09/18 11:13:51;;;;;;;3.50;0.60;;;22.90;96.70;;;;;;5100734;27;20044;-74
2022/09/18 11:16:27;;;;;;;2.17;0.68;;;23.00;96.70;;;;;;5098552;27;20047;-75
2022/09/18 11:19:06;;;;;;;1.60;0.50;;;23.20;96.70;;;;;;5102280;27;20036;-75
2022/09/18 11:21:47;;;;;;;1.02;0.50;;;23.30;96.70;;;;;;5098116;27;20409;-75
2022/09/18 11:24:24;;;;;;;0.88;0.40;;;23.40;96.70;;;;;;5103579;27;20116;-75
2022/09/18 11:27:00;;;;;;;1.52;0.43;;;23.40;96.70;;;;;;5113238;27;20039;-75
2022/09/18 11:29:31;;;;;;;0.60;0.28;;;23.40;96.70;;;;;;5085830;28;20138;-76
2022/09/18 11:32:12;;;;;;;0.50;0.28;;;23.60;96.70;;;;;;5092697;28;20051;-74
2022/09/18 11:34:49;;;;;;;1.30;0.40;;;23.60;96.70;;;;;;5079037;27;20520;-75
2022/09/18 11:37:28;;;;;;;1.88;0.50;;;23.70;96.70;;;;;;5102628;27;20044;-75
2022/09/18 11:40:00;;;;;;;0.63;0.40;;;23.80;96.70;;;;;;5084355;28;20543;-74
2022/09/18 11:42:32;;;;;;;0.68;0.30;;;23.90;96.70;;;;;;5098766;28;20032;-74
2022/09/18 11:45:24;;;;;;;1.02;0.40;;;24.00;96.70;;;;;;5105203;28;20044;-75
2022/09/18 11:48:01;;;;;;;1.83;0.50;;;24.00;96.70;;;;;;5096009;28;20052;-74
2022/09/18 11:50:34;;;;;;;1.30;0.50;;;24.20;96.70;;;;;;5102469;28;20529;-75
2022/09/18 11:53:13;;;;;;;1.33;0.50;;;24.40;96.70;;;;;;5097166;27;20683;-74
2022/09/18 11:55:46;;;;;;;0.70;0.35;;;24.40;96.70;;;;;;5103976;27;20071;-75
2022/09/18 11:58:19;;;;;;;1.00;0.32;;;24.50;96.70;;;;;;5096394;27;20062;-75
2022/09/18 12:00:53;;;;;;;1.27;0.65;;;24.60;96.70;;;;;;5098216;28;20054;-76
2022/09/18 12:03:27;;;;;;;0.77;0.30;;;24.60;96.70;;;;;;5052168;28;20048;-76
2022/09/18 12:06:02;;;;;;;1.95;0.50;;;24.80;96.70;;;;;;5089177;28;20143;-75
2022/09/18 12:08:43;;;;;;;2.40;0.30;;;24.90;96.70;;;;;;5100881;28;20063;-75
2022/09/18 12:11:21;;;;;;;1.98;0.30;;;24.90;96.70;;;;;;5080705;28;20047;-75
2022/09/18 12:14:10;;;;;;;1.00;0.30;;;25.00;96.70;;;;;;5100851;27;20059;-75
2022/09/18 12:16:42;;;;;;;;;;;25.00;96.70;;;;;;5100163;27;20085;-75
2022/09/18 12:19:22;;;;;;;1.17;0.30;;;25.20;96.70;;;;;;5099118;27;19923;-75
2022/09/18 12:21:58;;;;;;;2.40;0.35;;;25.20;96.70;;;;;;5110590;27;20043;-76
2022/09/18 12:24:28;;;;;;;2.15;0.50;;;25.40;96.70;;;;;;5105882;27;20096;-75
2022/09/18 12:27:15;;;;;;;1.55;0.25;;;25.50;96.70;;;;;;5096647;27;20043;-75
2022/09/18 12:29:59;;;;;;;0.20;0.20;;;25.60;96.50;;;;;;5099453;27;20461;-75
2022/09/18 12:32:53;;;;;;;0.80;0.30;;;25.80;96.70;;;;;;5100109;27;20064;-75
2022/09/18 12:35:30;;;;;;;1.15;0.20;;;25.60;95.60;;;;;;5057534;27;20052;-75
2022/09/18 12:38:23;;;;;;;0.40;0.20;;;25.60;94.80;;;;;;5095488;27;20067;-75
2022/09/18 12:41:07;;;;;;;0.50;0.20;;;25.70;96.00;;;;;;5096705;28;20114;-75
2022/09/18 12:43:59;;;;;;;1.27;0.40;;;25.60;96.20;;;;;;5093283;28;20055;-75
2022/09/18 12:46:37;;;;;;;1.23;0.35;;;25.70;94.90;;;;;;5097264;28;20048;-75
2022/09/18 12:49:16;;;;;;;1.15;0.30;;;25.70;95.40;;;;;;5106683;27;20047;-75
2022/09/18 12:51:51;;;;;;;1.30;0.30;;;25.70;94.10;;;;;;5101900;27;20051;-75
2022/09/18 12:54:40;;;;;;;1.70;0.20;;;25.70;96.30;;;;;;5106957;27;20126;-75
2022/09/18 12:57:24;;;;;;;0.88;0.20;;;25.70;94.80;;;;;;5105748;27;20066;-76
2022/09/18 12:59:57;;;;;;;0.63;0.40;;;25.80;94.30;;;;;;5101428;27;20082;-75
2022/09/18 13:02:36;;;;;;;1.33;0.40;;;25.80;93.20;;;;;;5100328;27;20545;-75
2022/09/18 13:05:11;;;;;;;0.82;0.38;;;25.90;94.50;;;;;;5102349;27;20044;-75
2022/09/18 13:07:46;;;;;;;3.30;0.70;;;26.00;95.70;;;;;;5094492;27;20071;-75
2022/09/18 13:10:20;;;;;;;1.02;0.30;;;26.10;95.30;;;;;;5095879;28;20040;-75
2022/09/18 13:13:01;;;;;;;2.05;0.30;;;26.00;94.30;;;;;;5099451;28;20047;-75
2022/09/18 13:15:39;;;;;;;1.50;0.30;;;26.00;94.30;;;;;;5092378;28;20055;-76
2022/09/18 13:18:18;;;;;;;0.73;0.30;;;26.10;93.90;;;;;;5099041;27;20048;-76
2022/09/18 13:20:48;;;;;;;0.43;0.20;;;26.10;94.70;;;;;;5099397;27;20097;-76
2022/09/18 13:23:22;;;;;;;1.40;0.40;;;26.10;93.90;;;;;;5101278;27;20040;-75
2022/09/18 13:25:52;;;;;;;0.52;0.30;;;26.20;94.80;;;;;;5088232;28;20048;-75
2022/09/18 13:28:22;;;;;;;1.42;0.28;;;26.30;94.70;;;;;;5084649;28;20120;-75
2022/09/18 13:31:23;;;;;;;0.80;0.30;;;26.20;94.80;;;;;;5108489;27;20039;-75
2022/09/18 13:33:54;;;;;;;1.45;0.30;;;26.20;95.40;;;;;;5100679;27;20559;-76